createdAt,value
2018-03-16T00:00:15.559Z,986.46
2018-03-16T00:00:56.076Z,986.45
2018-03-16T00:01:36.541Z,986.49
2018-03-16T00:02:17.028Z,986.47
2018-03-16T00:02:57.526Z,986.45
2018-03-16T00:03:38.037Z,986.49
2018-03-16T00:04:18.550Z,986.55
2018-03-16T00:04:59.047Z,986.52
2018-03-16T00:05:39.599Z,986.5
2018-03-16T00:06:20.080Z,986.55
2018-03-16T00:07:00.527Z,986.53
2018-03-16T00:07:41.031Z,986.55
2018-03-16T00:08:21.542Z,986.53
2018-03-16T00:09:02.069Z,986.53
2018-03-16T00:09:42.581Z,986.56
2018-03-16T00:10:23.095Z,986.58
2018-03-16T00:11:03.601Z,986.54
2018-03-16T00:11:44.121Z,986.6
2018-03-16T00:12:24.636Z,986.61
2018-03-16T00:13:05.154Z,986.57
2018-03-16T00:13:45.634Z,986.6
2018-03-16T00:14:26.144Z,986.55
2018-03-16T00:15:06.638Z,986.57
2018-03-16T00:15:47.152Z,986.56
2018-03-16T00:16:27.668Z,986.53
2018-03-16T00:17:08.138Z,986.58
2018-03-16T00:17:48.678Z,986.57
2018-03-16T00:18:29.163Z,986.61
2018-03-16T00:19:09.639Z,986.57
2018-03-16T00:19:50.116Z,986.58
2018-03-16T00:20:30.628Z,986.6
2018-03-16T00:21:11.068Z,986.63
2018-03-16T00:21:51.546Z,986.62
2018-03-16T00:22:32.121Z,986.62
2018-03-16T00:23:12.702Z,986.63
2018-03-16T00:23:53.137Z,986.64
2018-03-16T00:24:33.619Z,986.63
2018-03-16T00:25:14.096Z,986.65
2018-03-16T00:25:54.590Z,986.64
2018-03-16T00:26:35.133Z,986.63
2018-03-16T00:27:15.652Z,986.67
2018-03-16T00:27:56.178Z,986.67
2018-03-16T00:28:36.703Z,986.67
2018-03-16T00:29:17.217Z,986.67
2018-03-16T00:29:57.735Z,986.65
2018-03-16T00:30:38.247Z,986.69
2018-03-16T00:31:18.756Z,986.67
2018-03-16T00:31:59.268Z,986.69
2018-03-16T00:32:39.783Z,986.61
2018-03-16T00:33:20.299Z,986.66
2018-03-16T00:34:00.865Z,986.65
2018-03-16T00:34:41.307Z,986.65
2018-03-16T00:35:21.891Z,986.63
2018-03-16T00:36:02.376Z,986.67
2018-03-16T00:36:42.907Z,986.66
2018-03-16T00:37:23.399Z,986.67
2018-03-16T00:38:03.933Z,986.68
2018-03-16T00:38:44.442Z,986.68
2018-03-16T00:39:24.967Z,986.69
2018-03-16T00:40:05.468Z,986.72
2018-03-16T00:40:45.979Z,986.66
2018-03-16T00:41:26.497Z,986.69
2018-03-16T00:42:07.003Z,986.73
2018-03-16T00:42:47.509Z,986.72
2018-03-16T00:43:28.002Z,986.7
2018-03-16T00:44:08.529Z,986.67
2018-03-16T00:44:49.041Z,986.68
2018-03-16T00:45:29.574Z,986.7
2018-03-16T00:46:10.106Z,986.74
2018-03-16T00:46:50.613Z,986.74
2018-03-16T00:47:31.144Z,986.75
2018-03-16T00:48:11.654Z,986.75
2018-03-16T00:48:52.158Z,986.73
2018-03-16T00:49:32.666Z,986.71
2018-03-16T00:50:13.181Z,986.74
2018-03-16T00:50:53.705Z,986.75
2018-03-16T00:51:34.238Z,986.76
2018-03-16T00:52:14.763Z,986.76
2018-03-16T00:52:55.267Z,986.72
2018-03-16T00:53:35.802Z,986.73
2018-03-16T00:54:16.320Z,986.7
2018-03-16T00:54:56.856Z,986.72
2018-03-16T00:55:37.361Z,986.71
2018-03-16T00:56:17.881Z,986.75
2018-03-16T00:56:58.397Z,986.79
2018-03-16T00:57:38.913Z,986.77
2018-03-16T00:58:19.447Z,986.74
2018-03-16T00:58:59.970Z,986.77
2018-03-16T00:59:40.477Z,986.77
2018-03-16T01:00:20.999Z,986.77
2018-03-16T01:01:01.505Z,986.84
2018-03-16T01:01:42.032Z,986.78
2018-03-16T01:02:22.556Z,986.84
2018-03-16T01:03:03.076Z,986.83
2018-03-16T01:03:43.589Z,986.84
2018-03-16T01:04:24.113Z,986.86
2018-03-16T01:05:04.634Z,986.87
2018-03-16T01:05:45.137Z,986.87
2018-03-16T01:06:25.648Z,986.84
2018-03-16T01:07:06.161Z,986.86
2018-03-16T01:07:46.662Z,986.83
2018-03-16T01:08:27.185Z,986.84
2018-03-16T01:09:07.745Z,986.88
2018-03-16T01:09:48.275Z,986.87
2018-03-16T01:10:28.765Z,986.87
2018-03-16T01:11:09.257Z,986.84
2018-03-16T01:11:49.754Z,986.92
2018-03-16T01:12:30.265Z,986.9
2018-03-16T01:13:10.785Z,986.89
2018-03-16T01:13:51.305Z,986.94
2018-03-16T01:14:31.839Z,986.94
2018-03-16T01:15:12.329Z,986.92
2018-03-16T01:15:52.846Z,986.89
2018-03-16T01:16:33.348Z,986.88
2018-03-16T01:17:13.886Z,986.91
2018-03-16T01:17:54.396Z,986.91
2018-03-16T01:18:34.914Z,986.94
2018-03-16T01:19:15.423Z,986.87
2018-03-16T01:19:55.932Z,986.91
2018-03-16T01:20:36.464Z,986.94
2018-03-16T01:21:16.966Z,986.92
2018-03-16T01:21:57.482Z,986.93
2018-03-16T01:22:37.996Z,986.97
2018-03-16T01:23:18.538Z,986.95
2018-03-16T01:23:59.047Z,986.99
2018-03-16T01:24:39.535Z,986.96
2018-03-16T01:25:20.057Z,987.03
2018-03-16T01:26:00.592Z,986.98
2018-03-16T01:26:41.093Z,986.99
2018-03-16T01:27:21.619Z,986.99
2018-03-16T01:28:02.144Z,986.96
2018-03-16T01:28:42.657Z,987.01
2018-03-16T01:29:23.153Z,987.01
2018-03-16T01:30:03.678Z,987.07
2018-03-16T01:30:44.181Z,987.07
2018-03-16T01:31:24.704Z,987.05
2018-03-16T01:32:05.216Z,987.06
2018-03-16T01:32:45.726Z,987.04
2018-03-16T01:33:26.239Z,987.03
2018-03-16T01:34:06.762Z,987.04
2018-03-16T01:34:47.250Z,987.05
2018-03-16T01:35:27.765Z,987.05
2018-03-16T01:36:08.285Z,987.06
2018-03-16T01:36:48.819Z,987.02
2018-03-16T01:37:29.285Z,987.05
2018-03-16T01:38:09.760Z,987.05
2018-03-16T01:38:50.263Z,987.05
2018-03-16T01:39:30.785Z,987.05
2018-03-16T01:40:11.280Z,987.07
2018-03-16T01:40:51.782Z,987.08
2018-03-16T01:41:32.299Z,987.08
2018-03-16T01:42:12.790Z,987.04
2018-03-16T01:42:53.278Z,987.06
2018-03-16T01:43:33.795Z,987.04
2018-03-16T01:44:14.343Z,986.99
2018-03-16T01:44:54.827Z,987
2018-03-16T01:45:35.351Z,987.03
2018-03-16T01:46:15.866Z,987.06
2018-03-16T01:46:56.375Z,986.99
2018-03-16T01:47:36.895Z,987
2018-03-16T01:48:17.402Z,987.03
2018-03-16T01:48:57.917Z,987
2018-03-16T01:49:38.437Z,986.97
2018-03-16T01:50:18.943Z,987.06
2018-03-16T01:50:59.470Z,987.06
2018-03-16T01:51:39.975Z,987.06
2018-03-16T01:52:20.470Z,987.02
2018-03-16T01:53:00.989Z,987.02
2018-03-16T01:53:41.515Z,986.97
2018-03-16T01:54:22.026Z,987
2018-03-16T01:55:02.539Z,987
2018-03-16T01:55:43.088Z,986.99
2018-03-16T01:56:23.607Z,986.98
2018-03-16T01:57:04.137Z,986.98
2018-03-16T01:57:44.622Z,987.01
2018-03-16T01:58:25.148Z,987.02
2018-03-16T01:59:05.668Z,987
2018-03-16T01:59:46.187Z,987
2018-03-16T02:00:26.713Z,986.97
2018-03-16T02:01:07.224Z,987
2018-03-16T02:01:47.751Z,986.99
2018-03-16T02:02:28.263Z,986.97
2018-03-16T02:03:08.764Z,986.99
2018-03-16T02:03:49.280Z,987
2018-03-16T02:04:29.787Z,986.97
2018-03-16T02:05:10.296Z,987.01
2018-03-16T02:05:50.823Z,987
2018-03-16T02:06:31.340Z,986.94
2018-03-16T02:07:11.845Z,987.03
2018-03-16T02:07:52.373Z,986.95
2018-03-16T02:08:32.887Z,986.95
2018-03-16T02:09:13.404Z,986.99
2018-03-16T02:09:53.916Z,987
2018-03-16T02:10:34.441Z,986.98
2018-03-16T02:11:14.953Z,986.96
2018-03-16T02:11:55.469Z,986.98
2018-03-16T02:12:35.981Z,986.97
2018-03-16T02:13:16.496Z,986.99
2018-03-16T02:13:57.008Z,986.98
2018-03-16T02:14:37.528Z,987
2018-03-16T02:15:18.049Z,987.02
2018-03-16T02:15:58.578Z,987.02
2018-03-16T02:16:39.105Z,987.03
2018-03-16T02:17:19.612Z,987.02
2018-03-16T02:18:00.128Z,987.01
2018-03-16T02:18:40.659Z,987.03
2018-03-16T02:19:21.171Z,987
2018-03-16T02:20:01.687Z,986.99
2018-03-16T02:20:42.196Z,986.96
2018-03-16T02:21:22.709Z,986.98
2018-03-16T02:22:03.242Z,986.98
2018-03-16T02:22:43.758Z,986.92
2018-03-16T02:23:24.273Z,986.94
2018-03-16T02:24:04.822Z,986.96
2018-03-16T02:24:45.352Z,986.98
2018-03-16T02:25:25.879Z,986.96
2018-03-16T02:26:06.405Z,986.95
2018-03-16T02:26:46.931Z,986.97
2018-03-16T02:27:27.468Z,986.92
2018-03-16T02:28:07.996Z,986.93
2018-03-16T02:28:48.484Z,986.91
2018-03-16T02:29:28.996Z,986.9
2018-03-16T02:30:09.503Z,986.86
2018-03-16T02:30:50.018Z,986.92
2018-03-16T02:31:30.546Z,986.87
2018-03-16T02:32:11.061Z,986.91
2018-03-16T02:32:51.614Z,986.91
2018-03-16T02:33:32.122Z,986.88
2018-03-16T02:34:12.680Z,986.88
2018-03-16T02:34:53.150Z,986.84
2018-03-16T02:35:33.672Z,986.94
2018-03-16T02:36:14.190Z,986.87
2018-03-16T02:36:54.715Z,986.89
2018-03-16T02:37:35.241Z,986.93
2018-03-16T02:38:15.775Z,986.93
2018-03-16T02:38:56.299Z,986.92
2018-03-16T02:39:36.813Z,986.92
2018-03-16T02:40:17.293Z,986.9
2018-03-16T02:40:57.838Z,986.92
2018-03-16T02:41:38.327Z,986.88
2018-03-16T02:42:18.805Z,986.91
2018-03-16T02:42:59.379Z,986.87
2018-03-16T02:43:39.811Z,986.86
2018-03-16T02:44:20.326Z,986.88
2018-03-16T02:45:00.838Z,986.87
2018-03-16T02:45:41.359Z,986.83
2018-03-16T02:46:21.868Z,986.76
2018-03-16T02:47:02.377Z,986.83
2018-03-16T02:47:42.863Z,986.83
2018-03-16T02:48:23.373Z,986.78
2018-03-16T02:49:03.877Z,986.72
2018-03-16T02:49:44.376Z,986.75
2018-03-16T02:50:24.879Z,986.78
2018-03-16T02:51:05.405Z,986.79
2018-03-16T02:51:45.906Z,986.76
2018-03-16T02:52:26.427Z,986.76
2018-03-16T02:53:06.917Z,986.77
2018-03-16T02:53:47.465Z,986.78
2018-03-16T02:54:27.991Z,986.76
2018-03-16T02:55:08.498Z,986.75
2018-03-16T02:55:49.027Z,986.77
2018-03-16T02:56:29.544Z,986.77
2018-03-16T02:57:10.078Z,986.76
2018-03-16T02:57:50.585Z,986.85
2018-03-16T02:58:31.111Z,986.81
2018-03-16T02:59:11.621Z,986.79
2018-03-16T02:59:52.130Z,986.78
2018-03-16T03:00:32.649Z,986.79
2018-03-16T03:01:13.168Z,986.83
2018-03-16T03:01:53.690Z,986.81
2018-03-16T03:02:34.199Z,986.79
2018-03-16T03:03:14.719Z,986.81
2018-03-16T03:03:55.249Z,986.81
2018-03-16T03:04:35.741Z,986.82
2018-03-16T03:05:16.253Z,986.79
2018-03-16T03:05:56.775Z,986.84
2018-03-16T03:06:37.288Z,986.82
2018-03-16T03:07:17.789Z,986.81
2018-03-16T03:07:58.337Z,986.78
2018-03-16T03:08:38.805Z,986.78
2018-03-16T03:09:19.334Z,986.73
2018-03-16T03:09:59.843Z,986.73
2018-03-16T03:10:40.355Z,986.76
2018-03-16T03:11:20.872Z,986.76
2018-03-16T03:12:01.388Z,986.74
2018-03-16T03:12:41.896Z,986.76
2018-03-16T03:13:22.413Z,986.79
2018-03-16T03:14:02.948Z,986.74
2018-03-16T03:14:43.479Z,986.74
2018-03-16T03:15:24.008Z,986.77
2018-03-16T03:16:04.507Z,986.73
2018-03-16T03:16:45.029Z,986.78
2018-03-16T03:17:25.560Z,986.77
2018-03-16T03:18:06.112Z,986.78
2018-03-16T03:18:46.557Z,986.78
2018-03-16T03:19:27.056Z,986.78
2018-03-16T03:20:07.593Z,986.78
2018-03-16T03:20:48.117Z,986.8
2018-03-16T03:21:28.637Z,986.77
2018-03-16T03:22:09.141Z,986.77
2018-03-16T03:22:49.680Z,986.8
2018-03-16T03:23:30.201Z,986.78
2018-03-16T03:24:10.771Z,986.79
2018-03-16T03:24:51.280Z,986.78
2018-03-16T03:25:31.845Z,986.78
2018-03-16T03:26:12.297Z,986.79
2018-03-16T03:26:52.815Z,986.79
2018-03-16T03:27:33.329Z,986.83
2018-03-16T03:28:13.847Z,986.79
2018-03-16T03:28:54.330Z,986.78
2018-03-16T03:29:34.856Z,986.81
2018-03-16T03:30:15.393Z,986.82
2018-03-16T03:30:55.884Z,986.82
2018-03-16T03:31:36.521Z,986.8
2018-03-16T03:32:17.020Z,986.84
2018-03-16T03:32:57.542Z,986.84
2018-03-16T03:33:38.056Z,986.86
2018-03-16T03:34:18.680Z,986.81
2018-03-16T03:34:59.170Z,986.85
2018-03-16T03:35:39.673Z,986.85
2018-03-16T03:36:20.158Z,986.82
2018-03-16T03:37:00.675Z,986.87
2018-03-16T03:37:41.150Z,986.89
2018-03-16T03:38:21.689Z,986.84
2018-03-16T03:39:02.199Z,986.86
2018-03-16T03:39:42.704Z,986.87
2018-03-16T03:40:23.258Z,986.87
2018-03-16T03:42:21.419Z,986.87
2018-03-16T03:43:01.931Z,986.93
2018-03-16T03:43:42.468Z,986.89
2018-03-16T03:44:22.960Z,986.88
2018-03-16T03:45:03.470Z,986.93
2018-03-16T03:45:44.089Z,986.93
2018-03-16T03:46:24.585Z,986.93
2018-03-16T03:47:05.118Z,986.93
2018-03-16T03:47:45.603Z,986.95
2018-03-16T03:48:26.099Z,986.97
2018-03-16T03:49:06.625Z,986.94
2018-03-16T03:49:47.178Z,986.95
2018-03-16T03:50:27.646Z,986.95
2018-03-16T03:51:08.124Z,987.01
2018-03-16T03:51:48.675Z,987.02
2018-03-16T03:52:29.147Z,987.08
2018-03-16T03:53:09.660Z,987.05
2018-03-16T03:53:50.158Z,987.06
2018-03-16T03:54:30.669Z,987.03
2018-03-16T03:55:11.172Z,987.09
2018-03-16T03:55:51.677Z,987.13
2018-03-16T03:56:32.172Z,987.12
2018-03-16T03:57:12.654Z,987.13
2018-03-16T03:57:53.131Z,987.12
2018-03-16T03:58:33.646Z,987.1
2018-03-16T03:59:14.126Z,987.1
2018-03-16T03:59:54.709Z,987.08
2018-03-16T04:00:35.189Z,987.08
2018-03-16T04:01:15.742Z,987.06
2018-03-16T04:01:56.243Z,987.08
2018-03-16T04:02:36.762Z,987.09
2018-03-16T04:03:17.247Z,987.1
2018-03-16T04:03:57.740Z,987.07
2018-03-16T04:04:38.255Z,987.06
2018-03-16T04:05:18.764Z,987.07
2018-03-16T04:05:59.293Z,987.07
2018-03-16T04:06:39.794Z,987.06
2018-03-16T04:07:20.276Z,987.05
2018-03-16T04:08:00.782Z,987.08
2018-03-16T04:08:41.309Z,987.07
2018-03-16T04:09:21.814Z,987.05
2018-03-16T04:10:02.296Z,987.1
2018-03-16T04:10:42.791Z,987.04
2018-03-16T04:11:23.315Z,987.02
2018-03-16T04:12:03.846Z,987.03
2018-03-16T04:12:44.343Z,987.03
2018-03-16T04:13:24.832Z,987.04
2018-03-16T04:14:05.334Z,987.05
2018-03-16T04:14:45.829Z,987.02
2018-03-16T04:15:26.335Z,986.98
2018-03-16T04:17:56.617Z,987.03
2018-03-16T04:18:37.141Z,987.03
2018-03-16T04:19:17.641Z,987.04
2018-03-16T04:19:58.144Z,987.01
2018-03-16T04:20:38.754Z,986.98
2018-03-16T04:21:19.213Z,987
2018-03-16T04:21:59.798Z,986.97
2018-03-16T04:22:40.273Z,987.02
2018-03-16T04:23:20.790Z,987.02
2018-03-16T04:24:01.311Z,986.98
2018-03-16T04:24:41.851Z,986.99
2018-03-16T04:25:22.367Z,987
2018-03-16T04:26:02.852Z,986.99
2018-03-16T04:26:43.373Z,987.04
2018-03-16T04:27:23.867Z,987.03
2018-03-16T04:28:04.436Z,987.01
2018-03-16T04:28:44.960Z,987.01
2018-03-16T04:29:25.470Z,987.02
2018-03-16T04:30:05.963Z,987.06
2018-03-16T04:30:46.483Z,987.01
2018-03-16T04:31:27.009Z,987.05
2018-03-16T04:32:07.512Z,987.03
2018-03-16T04:32:48.010Z,987.03
2018-03-16T04:33:28.520Z,987
2018-03-16T04:34:09.044Z,987.01
2018-03-16T04:34:49.594Z,987.04
2018-03-16T04:35:30.120Z,987.08
2018-03-16T04:36:10.639Z,987.03
2018-03-16T04:36:51.151Z,987.1
2018-03-16T04:37:31.669Z,987.12
2018-03-16T04:38:12.195Z,987.1
2018-03-16T04:38:52.704Z,987.1
2018-03-16T04:39:33.228Z,987.06
2018-03-16T04:40:13.850Z,987.13
2018-03-16T04:40:54.282Z,987.1
2018-03-16T04:41:34.811Z,987.12
2018-03-16T04:42:15.391Z,987.11
2018-03-16T04:42:55.933Z,987.12
2018-03-16T04:43:36.442Z,987.12
2018-03-16T04:44:16.937Z,987.14
2018-03-16T04:44:57.462Z,987.11
2018-03-16T04:45:37.975Z,987.12
2018-03-16T04:46:18.480Z,987.16
2018-03-16T04:46:59.013Z,987.15
2018-03-16T04:47:39.523Z,987.2
2018-03-16T04:48:20.033Z,987.2
2018-03-16T04:49:00.535Z,987.17
2018-03-16T04:49:41.064Z,987.19
2018-03-16T04:50:21.592Z,987.16
2018-03-16T04:51:02.095Z,987.19
2018-03-16T04:51:42.603Z,987.12
2018-03-16T04:52:23.127Z,987.2
2018-03-16T04:53:03.637Z,987.17
2018-03-16T04:53:44.171Z,987.21
2018-03-16T04:54:24.692Z,987.24
2018-03-16T04:55:05.189Z,987.28
2018-03-16T04:55:45.708Z,987.23
2018-03-16T04:56:26.248Z,987.25
2018-03-16T04:57:06.748Z,987.22
2018-03-16T04:57:47.218Z,987.25
2018-03-16T04:58:27.738Z,987.25
2018-03-16T04:59:08.197Z,987.25
2018-03-16T04:59:48.700Z,987.24
2018-03-16T05:00:29.209Z,987.28
2018-03-16T05:01:09.714Z,987.23
2018-03-16T05:01:50.253Z,987.29
2018-03-16T05:02:30.756Z,987.29
2018-03-16T05:03:11.266Z,987.31
2018-03-16T05:03:51.776Z,987.29
2018-03-16T05:04:32.291Z,987.28
2018-03-16T05:05:12.803Z,987.32
2018-03-16T05:05:53.321Z,987.32
2018-03-16T05:06:33.832Z,987.29
2018-03-16T05:07:14.340Z,987.29
2018-03-16T05:07:54.848Z,987.34
2018-03-16T05:08:35.373Z,987.35
2018-03-16T05:09:15.880Z,987.34
2018-03-16T05:09:56.390Z,987.32
2018-03-16T05:10:36.899Z,987.39
2018-03-16T05:11:17.419Z,987.34
2018-03-16T05:11:57.926Z,987.39
2018-03-16T05:12:38.435Z,987.38
2018-03-16T05:13:18.941Z,987.37
2018-03-16T05:13:59.440Z,987.36
2018-03-16T05:14:39.959Z,987.34
2018-03-16T05:15:20.465Z,987.35
2018-03-16T05:16:00.975Z,987.39
2018-03-16T05:16:41.479Z,987.37
2018-03-16T05:17:21.995Z,987.42
2018-03-16T05:18:02.514Z,987.4
2018-03-16T05:18:43.022Z,987.41
2018-03-16T05:19:23.547Z,987.39
2018-03-16T05:20:04.067Z,987.39
2018-03-16T05:20:44.578Z,987.43
2018-03-16T05:21:25.097Z,987.41
2018-03-16T05:22:05.604Z,987.46
2018-03-16T05:22:46.118Z,987.42
2018-03-16T05:23:26.630Z,987.45
2018-03-16T05:24:07.146Z,987.44
2018-03-16T05:24:47.656Z,987.46
2018-03-16T05:25:28.172Z,987.47
2018-03-16T05:26:08.678Z,987.45
2018-03-16T05:26:49.185Z,987.5
2018-03-16T05:27:29.697Z,987.46
2018-03-16T05:28:10.199Z,987.49
2018-03-16T05:28:50.718Z,987.49
2018-03-16T05:29:31.224Z,987.53
2018-03-16T05:30:11.742Z,987.48
2018-03-16T05:30:52.250Z,987.45
2018-03-16T05:31:32.763Z,987.49
2018-03-16T05:32:13.288Z,987.5
2018-03-16T05:32:53.816Z,987.52
2018-03-16T05:33:34.332Z,987.5
2018-03-16T05:34:14.852Z,987.52
2018-03-16T05:34:55.389Z,987.47
2018-03-16T05:35:35.900Z,987.5
2018-03-16T05:36:16.413Z,987.51
2018-03-16T05:36:56.941Z,987.49
2018-03-16T05:37:37.463Z,987.56
2018-03-16T05:38:17.982Z,987.51
2018-03-16T05:38:58.483Z,987.58
2018-03-16T05:39:39.002Z,987.58
2018-03-16T05:40:19.513Z,987.59
2018-03-16T05:41:00.068Z,987.62
2018-03-16T05:41:40.582Z,987.66
2018-03-16T05:42:21.097Z,987.64
2018-03-16T05:43:01.612Z,987.66
2018-03-16T05:43:42.098Z,987.66
2018-03-16T05:44:22.600Z,987.63
2018-03-16T05:45:03.190Z,987.69
2018-03-16T05:45:43.748Z,987.66
2018-03-16T05:46:24.230Z,987.63
2018-03-16T05:47:04.738Z,987.66
2018-03-16T05:47:45.242Z,987.73
2018-03-16T05:48:25.762Z,987.68
2018-03-16T05:49:06.294Z,987.71
2018-03-16T05:49:46.782Z,987.71
2018-03-16T05:50:27.295Z,987.71
2018-03-16T05:51:07.819Z,987.72
2018-03-16T05:51:48.323Z,987.73
2018-03-16T05:52:28.860Z,987.72
2018-03-16T05:53:09.399Z,987.78
2018-03-16T05:53:49.898Z,987.74
2018-03-16T05:54:30.411Z,987.77
2018-03-16T05:55:10.954Z,987.78
2018-03-16T05:57:04.032Z,987.8
2018-03-16T05:57:44.574Z,987.82
2018-03-16T05:58:25.078Z,987.78
2018-03-16T05:59:05.579Z,987.78
2018-03-16T05:59:46.077Z,987.78
2018-03-16T06:00:26.578Z,987.77
2018-03-16T06:01:07.090Z,987.78
2018-03-16T06:01:47.608Z,987.8
2018-03-16T06:02:28.115Z,987.81
2018-03-16T06:03:08.618Z,987.8
2018-03-16T06:03:49.161Z,987.77
2018-03-16T06:04:29.680Z,987.8
2018-03-16T06:05:10.202Z,987.86
2018-03-16T06:05:50.716Z,987.83
2018-03-16T06:06:31.228Z,987.83
2018-03-16T06:07:11.760Z,987.87
2018-03-16T06:07:52.274Z,987.84
2018-03-16T06:08:32.776Z,987.86
2018-03-16T06:09:13.473Z,987.86
2018-03-16T06:09:53.840Z,987.87
2018-03-16T06:10:34.361Z,987.87
2018-03-16T06:11:14.866Z,987.88
2018-03-16T06:11:55.384Z,987.87
2018-03-16T06:12:35.897Z,987.88
2018-03-16T06:13:16.411Z,987.88
2018-03-16T06:13:56.925Z,987.94
2018-03-16T06:14:37.446Z,987.96
2018-03-16T06:15:17.971Z,987.98
2018-03-16T06:15:58.484Z,987.94
2018-03-16T06:16:39.003Z,987.98
2018-03-16T06:17:19.543Z,987.94
2018-03-16T06:18:00.073Z,987.94
2018-03-16T06:18:40.585Z,988
2018-03-16T06:19:21.091Z,987.97
2018-03-16T06:20:01.582Z,987.97
2018-03-16T06:20:42.102Z,988.02
2018-03-16T06:21:22.597Z,988
2018-03-16T06:22:03.075Z,988.04
2018-03-16T06:22:43.598Z,987.99
2018-03-16T06:23:24.147Z,987.96
2018-03-16T06:24:04.637Z,987.98
2018-03-16T06:24:45.129Z,988.01
2018-03-16T06:25:25.688Z,987.95
2018-03-16T06:26:06.162Z,987.98
2018-03-16T06:26:46.661Z,987.98
2018-03-16T06:29:05.046Z,987.99
2018-03-16T06:29:45.575Z,988
2018-03-16T06:30:26.081Z,988.02
2018-03-16T06:31:06.586Z,988
2018-03-16T06:31:47.106Z,988.03
2018-03-16T06:32:27.629Z,988.02
2018-03-16T06:33:08.143Z,988.03
2018-03-16T06:33:48.654Z,988.01
2018-03-16T06:34:29.173Z,988.02
2018-03-16T06:35:09.692Z,988.05
2018-03-16T06:35:50.245Z,988.01
2018-03-16T06:36:30.775Z,988.06
2018-03-16T06:37:11.342Z,988.07
2018-03-16T06:37:52.923Z,988.06
2018-03-16T06:38:33.437Z,988.03
2018-03-16T06:39:13.935Z,988.08
2018-03-16T06:39:54.536Z,988.06
2018-03-16T06:40:34.974Z,988.1
2018-03-16T06:41:15.464Z,988.05
2018-03-16T06:41:56.727Z,988.04
2018-03-16T06:42:37.225Z,988.07
2018-03-16T06:43:17.735Z,988.11
2018-03-16T06:43:58.191Z,988.09
2018-03-16T06:44:38.923Z,988.08
2018-03-16T06:45:19.206Z,988.07
2018-03-16T06:45:59.717Z,988.08
2018-03-16T06:46:40.292Z,988.12
2018-03-16T06:47:20.796Z,988.09
2018-03-16T06:48:01.291Z,988.14
2018-03-16T06:48:41.796Z,988.2
2018-03-16T06:49:22.267Z,988.16
2018-03-16T06:50:02.718Z,988.17
2018-03-16T06:50:43.195Z,988.22
2018-03-16T06:51:23.677Z,988.14
2018-03-16T06:52:04.180Z,988.19
2018-03-16T06:52:44.654Z,988.22
2018-03-16T06:53:25.174Z,988.21
2018-03-16T06:54:05.644Z,988.23
2018-03-16T06:54:46.152Z,988.23
2018-03-16T06:55:26.668Z,988.18
2018-03-16T06:56:07.149Z,988.21
2018-03-16T06:58:25.493Z,988.24
2018-03-16T06:59:06.012Z,988.24
2018-03-16T06:59:46.550Z,988.21
2018-03-16T07:00:27.086Z,988.24
2018-03-16T07:01:07.598Z,988.25
2018-03-16T07:01:48.114Z,988.3
2018-03-16T07:02:28.604Z,988.24
2018-03-16T07:03:09.114Z,988.2
2018-03-16T07:03:49.634Z,988.26
2018-03-16T07:04:30.117Z,988.3
2018-03-16T07:05:10.643Z,988.26
2018-03-16T07:05:51.094Z,988.27
2018-03-16T07:06:31.681Z,988.31
2018-03-16T07:07:12.163Z,988.26
2018-03-16T07:07:52.665Z,988.3
2018-03-16T07:08:33.161Z,988.29
2018-03-16T07:09:13.707Z,988.32
2018-03-16T07:09:54.152Z,988.31
2018-03-16T07:10:34.656Z,988.35
2018-03-16T07:11:15.165Z,988.37
2018-03-16T07:11:55.630Z,988.38
2018-03-16T07:12:36.117Z,988.43
2018-03-16T07:13:16.620Z,988.42
2018-03-16T07:13:57.199Z,988.38
2018-03-16T07:14:37.638Z,988.41
2018-03-16T07:15:18.139Z,988.47
2018-03-16T07:15:58.642Z,988.48
2018-03-16T07:16:39.151Z,988.44
2018-03-16T07:17:19.640Z,988.44
2018-03-16T07:18:00.161Z,988.45
2018-03-16T07:18:40.592Z,988.46
2018-03-16T07:19:21.089Z,988.43
2018-03-16T07:20:01.552Z,988.44
2018-03-16T07:20:42.051Z,988.43
2018-03-16T07:21:22.525Z,988.49
2018-03-16T07:22:03.029Z,988.48
2018-03-16T07:22:43.526Z,988.45
2018-03-16T07:23:24.063Z,988.48
2018-03-16T07:24:04.548Z,988.49
2018-03-16T07:24:45.061Z,988.53
2018-03-16T07:25:25.621Z,988.53
2018-03-16T07:26:06.106Z,988.62
2018-03-16T07:26:46.597Z,988.56
2018-03-16T07:27:27.094Z,988.56
2018-03-16T07:28:07.617Z,988.61
2018-03-16T07:28:48.079Z,988.58
2018-03-16T07:29:28.565Z,988.56
2018-03-16T07:30:09.083Z,988.6
2018-03-16T07:30:49.593Z,988.61
2018-03-16T07:31:30.083Z,988.58
2018-03-16T07:32:10.549Z,988.62
2018-03-16T07:32:51.328Z,988.61
2018-03-16T07:33:31.774Z,988.61
2018-03-16T07:34:12.394Z,988.64
2018-03-16T07:34:52.808Z,988.62
2018-03-16T07:35:33.304Z,988.61
2018-03-16T07:36:13.766Z,988.63
2018-03-16T07:36:54.261Z,988.63
2018-03-16T07:37:34.795Z,988.61
2018-03-16T07:38:15.233Z,988.62
2018-03-16T07:38:55.733Z,988.68
2018-03-16T07:39:36.245Z,988.69
2018-03-16T07:40:16.753Z,988.66
2018-03-16T07:40:57.243Z,988.65
2018-03-16T07:41:37.716Z,988.65
2018-03-16T07:42:18.207Z,988.69
2018-03-16T07:42:58.707Z,988.69
2018-03-16T07:43:39.328Z,988.75
2018-03-16T07:44:19.776Z,988.67
2018-03-16T07:45:00.292Z,988.71
2018-03-16T07:45:40.790Z,988.76
2018-03-16T07:46:21.283Z,988.69
2018-03-16T07:47:01.811Z,988.74
2018-03-16T07:47:42.300Z,988.8
2018-03-16T07:48:22.837Z,988.76
2018-03-16T07:49:03.317Z,988.75
2018-03-16T07:49:43.923Z,988.77
2018-03-16T07:50:24.578Z,988.75
2018-03-16T07:51:05.115Z,988.77
2018-03-16T07:51:45.618Z,988.82
2018-03-16T07:52:26.118Z,988.78
2018-03-16T07:53:06.618Z,988.77
2018-03-16T07:53:47.120Z,988.83
2018-03-16T07:54:27.617Z,988.79
2018-03-16T07:55:08.186Z,988.82
2018-03-16T07:55:48.711Z,988.83
2018-03-16T07:56:29.212Z,988.84
2018-03-16T07:57:09.712Z,988.87
2018-03-16T07:57:50.217Z,988.81
2018-03-16T07:58:30.725Z,988.82
2018-03-16T07:59:11.243Z,988.86
2018-03-16T07:59:51.756Z,988.9
2018-03-16T08:00:32.279Z,988.85
2018-03-16T08:01:12.820Z,988.86
2018-03-16T08:01:53.283Z,988.89
2018-03-16T08:02:33.795Z,988.86
2018-03-16T08:03:14.286Z,988.89
2018-03-16T08:03:54.800Z,988.9
2018-03-16T08:04:35.325Z,988.88
2018-03-16T08:05:15.824Z,988.9
2018-03-16T08:05:56.353Z,988.9
2018-03-16T08:06:36.888Z,988.86
2018-03-16T08:07:17.398Z,988.93
2018-03-16T08:07:57.952Z,988.97
2018-03-16T08:08:38.461Z,988.95
2018-03-16T08:09:18.953Z,988.95
2018-03-16T08:09:59.474Z,988.88
2018-03-16T08:10:39.965Z,988.92
2018-03-16T08:11:20.474Z,988.96
2018-03-16T08:12:01.001Z,988.88
2018-03-16T08:12:41.467Z,988.95
2018-03-16T08:13:21.982Z,988.93
2018-03-16T08:14:02.482Z,988.91
2018-03-16T08:14:43.006Z,988.95
2018-03-16T08:15:23.515Z,988.93
2018-03-16T08:16:04.071Z,988.94
2018-03-16T08:16:44.557Z,988.96
2018-03-16T08:17:25.093Z,988.95
2018-03-16T08:18:05.593Z,988.94
2018-03-16T08:18:46.102Z,988.99
2018-03-16T08:19:26.610Z,989.04
2018-03-16T08:20:07.128Z,989
2018-03-16T08:20:47.632Z,989.03
2018-03-16T08:21:28.154Z,989.03
2018-03-16T08:22:08.672Z,989
2018-03-16T08:22:49.181Z,989.02
2018-03-16T08:23:29.690Z,989.02
2018-03-16T08:24:10.219Z,989.04
2018-03-16T08:24:50.710Z,989.02
2018-03-16T08:25:31.196Z,989
2018-03-16T08:26:11.710Z,989.04
2018-03-16T08:26:52.224Z,989.02
2018-03-16T08:27:32.724Z,989.09
2018-03-16T08:28:13.253Z,989.04
2018-03-16T08:28:53.715Z,989.05
2018-03-16T08:29:34.220Z,989.01
2018-03-16T08:30:14.725Z,989.08
2018-03-16T08:30:55.247Z,989.04
2018-03-16T08:31:35.760Z,989.05
2018-03-16T08:32:16.296Z,988.99
2018-03-16T08:32:56.742Z,988.99
2018-03-16T08:33:37.237Z,989.03
2018-03-16T08:34:17.711Z,988.97
2018-03-16T08:34:58.264Z,989
2018-03-16T08:35:38.785Z,989.04